createdAt,value
2018-03-08T00:01:39.144Z,14.60
2018-03-08T00:04:08.021Z,18.63
2018-03-08T00:06:36.938Z,17.60
2018-03-08T00:09:05.063Z,22.80
2018-03-08T00:11:33.241Z,19.30
2018-03-08T00:14:01.367Z,21.40
2018-03-08T00:16:29.540Z,17.40
2018-03-08T00:18:58.814Z,19.17
2018-03-08T00:21:27.723Z,18.43
2018-03-08T00:23:55.898Z,14.47
2018-03-08T00:26:24.025Z,16.87
2018-03-08T00:28:52.144Z,17.20
2018-03-08T00:31:20.296Z,17.73
2018-03-08T00:33:49.191Z,15.77
2018-03-08T00:36:18.102Z,18.87
2018-03-08T00:38:46.237Z,17.70
2018-03-08T00:41:14.378Z,20.97
2018-03-08T00:43:42.508Z,17.50
2018-03-08T00:46:11.417Z,15.90
2018-03-08T00:48:39.521Z,15.67
2018-03-08T00:51:07.682Z,18.10
2018-03-08T00:53:35.794Z,17.60
2018-03-08T00:56:03.912Z,20.07
2018-03-08T00:58:32.051Z,20.63
2018-03-08T01:01:02.980Z,15.77
2018-03-08T01:03:31.134Z,19.10
2018-03-08T01:05:59.251Z,19.60
2018-03-08T01:08:28.153Z,17.37
2018-03-08T01:10:56.268Z,18.23
2018-03-08T01:13:24.406Z,21.83
2018-03-08T01:15:52.535Z,22.43
2018-03-08T01:18:20.694Z,18.40
2018-03-08T01:20:49.946Z,16.10
2018-03-08T01:23:18.105Z,16.50
2018-03-08T01:25:46.264Z,16.57
2018-03-08T01:28:14.417Z,16.43
2018-03-08T01:30:42.884Z,15.07
2018-03-08T01:33:11.340Z,15.70
2018-03-08T01:35:39.461Z,14.30
2018-03-08T01:38:07.619Z,16.63
2018-03-08T01:40:35.734Z,15.90
2018-03-08T01:43:04.638Z,14.43
2018-03-08T01:45:33.478Z,14.07
2018-03-08T01:48:02.382Z,16.40
2018-03-08T01:50:30.514Z,13.20
2018-03-08T01:52:59.341Z,12.80
2018-03-08T01:55:27.485Z,15.67
2018-03-08T01:57:56.002Z,13.20
2018-03-08T02:00:24.910Z,13.80
2018-03-08T02:02:53.821Z,15.53
2018-03-08T02:05:23.819Z,12.50
2018-03-08T02:07:52.717Z,14.77
2018-03-08T02:10:21.618Z,14.70
2018-03-08T02:12:49.761Z,14.90
2018-03-08T02:15:17.874Z,15.57
2018-03-08T02:17:46.025Z,17.20
2018-03-08T02:20:14.934Z,18.90
2018-03-08T02:22:43.457Z,16.83
2018-03-08T02:25:11.583Z,17.80
2018-03-08T02:27:39.733Z,17.30
2018-03-08T02:30:07.855Z,19.53
2018-03-08T02:32:36.034Z,17.97
2018-03-08T02:35:06.619Z,19.10
2018-03-08T02:37:35.521Z,17.20
2018-03-08T02:40:03.649Z,22.63
2018-03-08T02:42:31.790Z,16.30
2018-03-08T02:44:59.921Z,19.83
2018-03-08T02:47:28.083Z,18.13
2018-03-08T02:49:56.233Z,17.43
2018-03-08T02:52:24.375Z,19.07
2018-03-08T02:54:53.466Z,18.97
2018-03-08T02:57:21.614Z,19.90
2018-03-08T02:59:50.494Z,19.63
2018-03-08T03:02:18.638Z,18.20
2018-03-08T03:04:46.771Z,19.97
2018-03-08T03:07:14.939Z,21.13
2018-03-08T03:09:43.839Z,23.30
2018-03-08T03:12:11.985Z,22.03
2018-03-08T03:14:40.103Z,22.00
2018-03-08T03:17:08.237Z,22.00
2018-03-08T03:19:37.133Z,23.57
2018-03-08T03:22:06.035Z,24.63
2018-03-08T03:24:34.922Z,21.20
2018-03-08T03:27:04.646Z,22.97
2018-03-08T03:29:33.420Z,24.90
2018-03-08T03:32:02.299Z,21.57
2018-03-08T03:34:31.231Z,25.47
2018-03-08T03:36:59.966Z,26.10
2018-03-08T03:39:28.107Z,27.17
2018-03-08T03:41:56.224Z,27.07
2018-03-08T03:44:25.870Z,27.50
2018-03-08T03:46:54.001Z,27.27
2018-03-08T03:49:22.977Z,23.50
2018-03-08T03:51:51.096Z,24.37
2018-03-08T03:54:19.270Z,24.57
2018-03-08T03:56:47.421Z,23.23
2018-03-08T03:59:16.332Z,26.70
2018-03-08T04:01:44.679Z,23.57
2018-03-08T04:04:12.827Z,25.77
2018-03-08T04:06:40.959Z,25.80
2018-03-08T04:09:09.179Z,25.10
2018-03-08T04:11:37.309Z,25.50
2018-03-08T04:14:05.462Z,23.13
2018-03-08T04:16:33.616Z,24.40
2018-03-08T04:19:01.767Z,23.93
2018-03-08T04:21:29.888Z,24.17
2018-03-08T04:23:58.800Z,25.53
2018-03-08T04:26:26.917Z,25.03
2018-03-08T04:28:55.068Z,27.10
2018-03-08T04:31:23.214Z,36.87
2018-03-08T04:33:51.789Z,24.90
2018-03-08T04:36:19.960Z,27.43
2018-03-08T04:38:48.914Z,28.70
2018-03-08T04:41:17.046Z,28.57
2018-03-08T04:43:45.189Z,31.80
2018-03-08T04:46:14.086Z,29.07
2018-03-08T04:48:42.996Z,31.67
2018-03-08T04:51:11.246Z,29.43
2018-03-08T04:53:40.144Z,29.60
2018-03-08T04:56:09.027Z,31.50
2018-03-08T04:58:37.934Z,32.37
2018-03-08T05:01:06.537Z,37.73
2018-03-08T05:03:34.676Z,31.87
2018-03-08T05:06:02.820Z,30.17
2018-03-08T05:08:31.756Z,30.87
2018-03-08T05:10:59.888Z,34.73
2018-03-08T05:13:28.033Z,34.90
2018-03-08T05:15:56.164Z,35.30
2018-03-08T05:18:25.072Z,37.13
2018-03-08T05:20:54.663Z,37.37
2018-03-08T05:23:23.200Z,39.63
2018-03-08T05:25:51.322Z,38.23
2018-03-08T05:28:20.221Z,39.57
2018-03-08T05:30:48.343Z,38.47
2018-03-08T05:33:16.996Z,42.30
2018-03-08T05:35:45.116Z,42.80
2018-03-08T05:38:13.265Z,43.90
2018-03-08T05:40:41.777Z,44.53
2018-03-08T05:43:09.908Z,44.63
2018-03-08T05:45:38.104Z,49.43
2018-03-08T05:48:06.252Z,56.00
2018-03-08T05:50:34.368Z,52.70
2018-03-08T05:53:02.522Z,55.43
2018-03-08T05:55:30.634Z,58.63
2018-03-08T05:57:59.540Z,54.30
2018-03-08T06:00:27.673Z,56.77
2018-03-08T06:02:55.817Z,60.63
2018-03-08T06:05:24.100Z,64.03
2018-03-08T06:07:53.093Z,65.07
2018-03-08T06:10:21.316Z,56.70
2018-03-08T06:12:50.372Z,64.07
2018-03-08T06:15:18.960Z,61.53
2018-03-08T06:17:47.103Z,68.67
2018-03-08T06:20:15.260Z,60.03
2018-03-08T06:22:43.420Z,66.03
2018-03-08T06:25:12.027Z,71.93
2018-03-08T06:27:40.162Z,81.53
2018-03-08T06:30:08.297Z,69.60
2018-03-08T06:32:36.412Z,70.37
2018-03-08T06:35:05.654Z,61.93
2018-03-08T06:37:33.777Z,72.00
2018-03-08T06:40:01.933Z,69.07
2018-03-08T06:42:30.086Z,71.67
2018-03-08T06:44:58.221Z,68.23
2018-03-08T06:47:27.092Z,65.10
2018-03-08T06:49:55.236Z,66.03
2018-03-08T06:52:23.392Z,65.70
2018-03-08T06:54:51.610Z,56.63
2018-03-08T06:57:19.761Z,62.40
2018-03-08T06:59:47.982Z,57.50
2018-03-08T07:02:16.288Z,61.00
2018-03-08T07:04:44.439Z,58.43
2018-03-08T07:07:13.318Z,51.50
2018-03-08T07:09:41.527Z,64.43
2018-03-08T07:12:09.673Z,51.33
2018-03-08T07:14:38.640Z,64.37
2018-03-08T07:17:06.766Z,46.30
2018-03-08T07:19:35.220Z,45.50
2018-03-08T07:22:03.409Z,48.93
2018-03-08T07:24:31.543Z,46.03
2018-03-08T07:26:59.717Z,41.20
2018-03-08T07:29:28.846Z,39.93
2018-03-08T07:31:58.194Z,42.70
2018-03-08T07:34:27.304Z,43.83
2018-03-08T07:36:55.420Z,32.90
2018-03-08T07:39:24.723Z,37.83
2018-03-08T07:41:52.849Z,31.37
2018-03-08T07:44:20.988Z,32.87
2018-03-08T07:46:49.141Z,29.90
2018-03-08T07:49:18.061Z,29.40
2018-03-08T07:51:47.467Z,30.83
2018-03-08T07:54:15.605Z,29.77
2018-03-08T07:56:44.899Z,28.50
2018-03-08T07:59:13.853Z,26.73
2018-03-08T08:01:41.994Z,34.27
2018-03-08T08:04:10.142Z,27.70
2018-03-08T08:06:51.058Z,39.07
2018-03-08T08:09:19.232Z,27.80
2018-03-08T08:11:47.357Z,33.80
2018-03-08T08:14:16.265Z,30.77
2018-03-08T08:16:44.496Z,36.83
2018-03-08T08:19:13.533Z,29.83
2018-03-08T08:21:41.667Z,32.40
2018-03-08T08:24:09.814Z,29.97
2018-03-08T08:26:38.269Z,35.37
2018-03-08T08:29:06.581Z,30.97
2018-03-08T08:31:34.724Z,26.60
2018-03-08T08:34:02.885Z,33.50
2018-03-08T08:36:31.818Z,27.20
2018-03-08T08:38:59.998Z,25.47
2018-03-08T08:41:28.141Z,25.77
2018-03-08T08:43:56.257Z,23.20
2018-03-08T08:46:24.396Z,22.70
2018-03-08T08:48:52.511Z,25.60
2018-03-08T08:51:20.860Z,20.43
2018-03-08T08:53:49.069Z,19.07
2018-03-08T08:56:18.029Z,24.33
2018-03-08T08:58:47.501Z,17.57
2018-03-08T09:01:16.916Z,16.93
2018-03-08T09:03:47.179Z,11.67
2018-03-08T09:06:16.799Z,21.83
2018-03-08T09:08:46.563Z,18.07
2018-03-08T09:11:16.271Z,18.37
2018-03-08T09:13:48.003Z,15.57
2018-03-08T09:16:17.519Z,18.23
2018-03-08T09:18:46.909Z,16.80
2018-03-08T09:21:16.309Z,12.10
2018-03-08T09:23:45.673Z,20.07
2018-03-08T09:26:13.736Z,11.67
2018-03-08T09:28:41.853Z,12.40
2018-03-08T09:31:10.762Z,12.80
2018-03-08T09:33:38.911Z,14.77
2018-03-08T09:36:07.060Z,16.10
2018-03-08T09:38:35.188Z,12.40
2018-03-08T09:41:03.332Z,10.27
2018-03-08T09:43:32.755Z,11.97
2018-03-08T09:46:01.689Z,14.33
2018-03-08T09:48:29.804Z,13.10
2018-03-08T09:50:58.722Z,10.97
2018-03-08T09:53:26.848Z,14.93
2018-03-08T09:55:54.997Z,15.23
2018-03-08T09:58:23.122Z,17.03
2018-03-08T10:00:52.032Z,21.27
2018-03-08T10:03:20.388Z,10.60
2018-03-08T10:05:49.310Z,19.53
2018-03-08T10:08:17.445Z,14.00
2018-03-08T10:10:45.590Z,13.77
2018-03-08T10:13:13.726Z,12.60
2018-03-08T10:15:41.893Z,11.83
2018-03-08T10:18:10.029Z,11.40
2018-03-08T10:20:38.958Z,12.97
2018-03-08T10:23:07.113Z,13.20
2018-03-08T10:25:36.028Z,10.00
2018-03-08T10:28:04.136Z,19.67
2018-03-08T10:30:32.278Z,7.63
2018-03-08T10:33:00.403Z,17.73
2018-03-08T10:38:01.857Z,10.40
2018-03-08T10:42:58.214Z,7.43
2018-03-08T10:45:26.373Z,11.57
2018-03-08T10:47:55.467Z,9.73
2018-03-08T10:50:23.477Z,8.53
2018-03-08T10:52:51.613Z,10.97
2018-03-08T10:55:21.281Z,6.80
2018-03-08T10:57:49.410Z,7.63
2018-03-08T11:00:24.043Z,8.67
2018-03-08T11:02:57.729Z,9.83
2018-03-08T11:05:26.640Z,8.17
2018-03-08T11:07:54.757Z,8.93
2018-03-08T11:10:22.904Z,7.00
2018-03-08T11:12:51.786Z,6.43
2018-03-08T11:15:19.948Z,8.43
2018-03-08T11:17:48.885Z,10.30
2018-03-08T11:20:17.014Z,8.07
2018-03-08T11:22:45.147Z,10.33
2018-03-08T11:25:13.261Z,10.80
2018-03-08T11:27:41.413Z,10.03
2018-03-08T11:30:09.539Z,14.23
2018-03-08T11:32:38.122Z,7.30
2018-03-08T11:35:07.033Z,9.00
2018-03-08T11:37:35.169Z,8.30
2018-03-08T11:40:04.092Z,8.67
2018-03-08T11:42:32.229Z,9.02
2018-03-08T11:45:02.957Z,9.97
2018-03-08T11:47:31.105Z,7.13
2018-03-08T11:49:59.218Z,11.73
2018-03-08T11:52:28.138Z,7.90
2018-03-08T11:54:56.304Z,8.60
2018-03-08T11:57:25.204Z,6.10
2018-03-08T11:59:53.312Z,9.23
2018-03-08T12:02:21.450Z,9.60
2018-03-08T12:04:49.561Z,8.37
2018-03-08T12:07:17.692Z,11.00
2018-03-08T12:09:45.824Z,10.23
2018-03-08T12:12:14.024Z,10.83
2018-03-08T12:14:42.903Z,8.23
2018-03-08T12:17:11.277Z,8.27
2018-03-08T12:19:40.172Z,9.27
2018-03-08T12:22:08.794Z,10.33
2018-03-08T12:24:36.902Z,8.93
2018-03-08T12:27:05.057Z,15.80
2018-03-08T12:29:33.190Z,30.27
2018-03-08T12:32:02.044Z,9.80
2018-03-08T12:34:30.663Z,11.60
2018-03-08T12:37:00.374Z,9.83
2018-03-08T12:39:28.925Z,13.10
2018-03-08T12:41:57.970Z,11.40
2018-03-08T12:44:27.043Z,9.73
2018-03-08T12:46:55.185Z,11.57
2018-03-08T12:49:23.311Z,7.17
2018-03-08T12:51:52.556Z,9.80
2018-03-08T12:54:20.794Z,11.67
2018-03-08T12:56:49.063Z,8.70
2018-03-08T12:59:17.196Z,10.33
2018-03-08T13:01:45.341Z,10.80
2018-03-08T13:04:13.692Z,10.07
2018-03-08T13:06:41.844Z,9.03
2018-03-08T13:09:10.247Z,9.87
2018-03-08T13:11:39.197Z,10.83
2018-03-08T13:14:07.293Z,9.43
2018-03-08T13:16:37.417Z,11.17
2018-03-08T13:19:05.577Z,11.13
2018-03-08T13:21:33.697Z,12.97
2018-03-08T13:24:01.836Z,11.43
2018-03-08T13:26:29.948Z,9.80
2018-03-08T13:28:58.088Z,9.80
2018-03-08T13:31:26.191Z,13.70
2018-03-08T13:33:54.318Z,9.27
2018-03-08T13:36:22.433Z,7.80
2018-03-08T13:38:51.706Z,7.63
2018-03-08T13:41:20.593Z,11.77
2018-03-08T13:43:48.776Z,12.23
2018-03-08T13:46:17.690Z,8.57
2018-03-08T13:48:45.872Z,8.00
2018-03-08T13:51:13.990Z,7.70
2018-03-08T13:53:43.039Z,6.13
2018-03-08T13:56:14.556Z,6.93
2018-03-08T13:58:43.713Z,7.10
2018-03-08T14:01:12.748Z,6.90
2018-03-08T14:03:40.884Z,4.50
2018-03-08T14:06:09.002Z,7.33
2018-03-08T14:08:37.902Z,6.60
2018-03-08T14:11:07.560Z,5.83
2018-03-08T14:13:35.692Z,9.00
2018-03-08T14:16:04.981Z,6.00
2018-03-08T14:18:33.889Z,8.77
2018-03-08T14:21:02.001Z,7.93
2018-03-08T14:23:31.598Z,5.37
2018-03-08T14:25:59.723Z,11.80
2018-03-08T14:28:28.632Z,7.27
2018-03-08T14:30:56.808Z,9.63
2018-03-08T14:33:25.640Z,8.17
2018-03-08T14:35:53.767Z,11.20
2018-03-08T14:38:22.008Z,9.47
2018-03-08T14:40:50.532Z,9.93
2018-03-08T14:43:18.785Z,15.43
2018-03-08T14:45:47.049Z,8.80
2018-03-08T14:48:15.194Z,10.67
2018-03-08T14:50:43.362Z,17.90
2018-03-08T14:53:11.483Z,14.73
2018-03-08T14:55:40.384Z,13.20
2018-03-08T14:58:09.259Z,9.43
2018-03-08T15:00:37.370Z,11.30
2018-03-08T15:03:05.545Z,15.73
2018-03-08T15:05:33.659Z,10.17
2018-03-08T15:08:01.831Z,13.03
2018-03-08T15:10:29.955Z,10.80
2018-03-08T15:12:58.926Z,13.70
2018-03-08T15:15:27.041Z,14.73
2018-03-08T15:17:55.174Z,9.67
2018-03-08T15:20:23.287Z,9.43
2018-03-08T15:22:51.422Z,10.60
2018-03-08T15:25:19.557Z,9.07
2018-03-08T15:27:47.682Z,10.60
2018-03-08T15:30:16.562Z,8.07
2018-03-08T15:32:45.065Z,10.67
2018-03-08T15:35:13.191Z,12.33
2018-03-08T15:37:41.335Z,8.90
2018-03-08T15:40:09.473Z,11.23
2018-03-08T15:42:38.364Z,12.73
2018-03-08T15:45:07.268Z,8.03
2018-03-08T15:47:36.143Z,9.30
2018-03-08T15:50:05.049Z,12.10
2018-03-08T15:52:33.929Z,10.20
2018-03-08T15:55:02.827Z,13.33
2018-03-08T15:57:31.704Z,12.13
2018-03-08T16:00:00.622Z,10.67
2018-03-08T16:02:29.497Z,10.83
2018-03-08T16:04:57.627Z,11.40
2018-03-08T16:10:40.619Z,12.33
2018-03-08T16:13:08.749Z,10.37
2018-03-08T16:15:36.881Z,11.87
2018-03-08T16:18:05.763Z,8.63
2018-03-08T16:20:34.668Z,10.70
2018-03-08T16:23:02.862Z,13.67
2018-03-08T16:25:31.042Z,13.17
2018-03-08T16:27:59.172Z,12.10
2018-03-08T16:30:28.111Z,9.03
2018-03-08T16:32:56.215Z,14.63
2018-03-08T16:35:24.345Z,14.07
2018-03-08T16:37:53.356Z,8.23
2018-03-08T16:40:22.428Z,11.83
2018-03-08T16:42:50.559Z,11.00
2018-03-08T16:45:18.720Z,12.27
2018-03-08T16:47:46.841Z,11.63
2018-03-08T16:50:14.997Z,10.57
2018-03-08T16:52:43.873Z,10.97
2018-03-08T16:55:12.036Z,9.97
2018-03-08T16:57:41.932Z,15.70
2018-03-08T17:00:10.165Z,10.97
2018-03-08T17:02:38.380Z,10.83
2018-03-08T17:05:06.564Z,11.17
2018-03-08T17:07:34.778Z,11.93
2018-03-08T17:10:02.952Z,11.67
2018-03-08T17:12:31.857Z,15.40
2018-03-08T17:15:00.026Z,9.40
2018-03-08T17:17:29.102Z,10.57
2018-03-08T17:19:57.311Z,9.57
2018-03-08T17:22:25.494Z,14.50
2018-03-08T17:24:53.616Z,16.03
2018-03-08T17:27:21.716Z,22.63
2018-03-08T17:29:50.608Z,10.90
2018-03-08T17:32:19.504Z,10.80
2018-03-08T17:34:48.418Z,13.30
2018-03-08T17:37:16.540Z,14.30
2018-03-08T17:39:45.490Z,20.83
2018-03-08T17:42:13.618Z,13.60
2018-03-08T17:44:41.768Z,15.40
2018-03-08T17:47:11.011Z,17.47
2018-03-08T17:49:39.824Z,15.30
2018-03-08T17:52:08.639Z,13.77
2018-03-08T17:54:36.817Z,21.97
2018-03-08T17:57:08.415Z,10.57
2018-03-08T17:59:38.050Z,16.13
2018-03-08T18:02:06.388Z,14.90
2018-03-08T18:04:36.095Z,16.50
2018-03-08T18:07:05.177Z,12.20
2018-03-08T18:09:33.571Z,15.83
2018-03-08T18:12:01.929Z,12.50
2018-03-08T18:14:31.765Z,17.90
2018-03-08T18:17:00.898Z,14.93
2018-03-08T18:19:29.610Z,20.83
2018-03-08T18:21:57.788Z,17.77
2018-03-08T18:24:27.024Z,17.90
2018-03-08T18:26:55.936Z,17.40
2018-03-08T18:29:24.066Z,20.37
2018-03-08T18:31:53.132Z,19.17
2018-03-08T18:34:21.258Z,17.20
2018-03-08T18:36:50.162Z,11.90
2018-03-08T18:39:19.468Z,16.00
2018-03-08T18:41:47.672Z,8.57
2018-03-08T18:44:15.849Z,5.87
2018-03-08T18:46:43.984Z,5.07
2018-03-08T18:49:12.861Z,9.37
2018-03-08T18:51:41.447Z,4.30
2018-03-08T18:54:09.628Z,5.00
2018-03-08T18:56:39.106Z,5.83
2018-03-08T18:59:08.162Z,4.90
2018-03-08T19:01:38.259Z,1.20
2018-03-08T19:04:06.385Z,2.73
2018-03-08T19:06:34.514Z,1.83
2018-03-08T19:09:02.664Z,1.60
2018-03-08T19:11:31.890Z,3.80
2018-03-08T19:14:00.002Z,42.30
2018-03-08T19:16:28.295Z,2.13
2018-03-08T19:18:56.514Z,1.67
2018-03-08T19:21:24.649Z,3.00
2018-03-08T19:23:52.768Z,2.20
2018-03-08T19:26:20.896Z,5.60
2018-03-08T19:28:49.009Z,2.03
2018-03-08T19:31:17.143Z,2.63
2018-03-08T19:33:45.240Z,3.23
2018-03-08T19:36:13.372Z,3.20
2018-03-08T19:38:41.485Z,1.27
2018-03-08T19:41:09.609Z,2.00
2018-03-08T19:43:37.756Z,2.07
2018-03-08T19:46:05.884Z,14.43
2018-03-08T19:48:34.385Z,2.47
2018-03-08T19:51:02.579Z,1.57
2018-03-08T19:53:31.427Z,1.43
2018-03-08T19:55:59.669Z,2.37
2018-03-08T19:58:27.841Z,2.03
2018-03-08T20:00:56.011Z,1.13
2018-03-08T20:03:24.140Z,1.10
2018-03-08T20:05:53.046Z,1.00
2018-03-08T20:08:21.163Z,1.87
2018-03-08T20:10:50.261Z,2.50
2018-03-08T20:13:19.269Z,1.80
2018-03-08T20:15:47.398Z,2.37
2018-03-08T20:18:15.510Z,1.83
2018-03-08T20:20:43.631Z,2.20
2018-03-08T20:23:11.749Z,2.10
2018-03-08T20:25:39.918Z,2.73
2018-03-08T20:28:08.157Z,4.33
2018-03-08T20:30:36.345Z,11.23
2018-03-08T20:33:04.452Z,4.93
2018-03-08T20:35:32.652Z,4.60
2018-03-08T20:38:00.796Z,3.30
2018-03-08T20:40:28.956Z,5.10
2018-03-08T20:42:57.058Z,4.70
2018-03-08T20:45:25.973Z,3.80
2018-03-08T20:47:54.097Z,3.03
2018-03-08T20:50:22.231Z,4.27
2018-03-08T20:52:50.364Z,4.70
2018-03-08T20:55:18.473Z,5.23
2018-03-08T20:57:46.645Z,4.10
2018-03-08T21:00:14.796Z,4.20
2018-03-08T21:02:42.924Z,4.30
2018-03-08T21:05:12.370Z,9.43
2018-03-08T21:07:40.500Z,6.30
2018-03-08T21:10:08.599Z,6.47
2018-03-08T21:12:36.768Z,5.23
2018-03-08T21:15:04.874Z,10.67
2018-03-08T21:17:33.773Z,8.70
2018-03-08T21:20:02.692Z,7.80
2018-03-08T21:22:31.315Z,8.63
2018-03-08T21:24:59.442Z,8.77
2018-03-08T21:27:27.579Z,11.30
2018-03-08T21:29:56.473Z,8.17
2018-03-08T21:32:24.689Z,8.97
2018-03-08T21:34:52.805Z,9.40
2018-03-08T21:37:22.003Z,10.13
2018-03-08T21:39:50.109Z,10.60
2018-03-08T21:42:19.020Z,8.83
2018-03-08T21:44:48.626Z,12.47
2018-03-08T21:47:16.794Z,7.40
2018-03-08T21:49:44.916Z,8.33
2018-03-08T21:52:13.075Z,10.23
2018-03-08T21:54:41.221Z,9.70
2018-03-08T21:57:09.365Z,12.43
2018-03-08T21:59:38.250Z,9.83
2018-03-08T22:02:07.314Z,8.50
2018-03-08T22:04:35.489Z,13.40
2018-03-08T22:07:03.705Z,11.17
2018-03-08T22:09:35.199Z,9.77
2018-03-08T22:12:03.417Z,8.97
2018-03-08T22:14:31.539Z,8.00
2018-03-08T22:17:00.738Z,11.83
2018-03-08T22:19:29.840Z,10.20
2018-03-08T22:21:59.131Z,8.20
2018-03-08T22:24:27.285Z,10.47
2018-03-08T22:26:56.931Z,8.83
2018-03-08T22:29:26.508Z,11.13
2018-03-08T22:31:55.435Z,11.27
2018-03-08T22:34:23.818Z,13.17
2018-03-08T22:36:51.960Z,14.50
2018-03-08T22:39:20.096Z,11.23
2018-03-08T22:41:48.241Z,13.00
2018-03-08T22:44:17.180Z,14.90
2018-03-08T22:46:46.105Z,12.80
2018-03-08T22:49:14.213Z,15.87
2018-03-08T22:51:42.359Z,14.67
2018-03-08T22:54:10.514Z,13.83
2018-03-08T22:56:38.659Z,13.83
2018-03-08T22:59:07.550Z,15.83
2018-03-08T23:04:52.270Z,14.73
2018-03-08T23:07:20.416Z,13.57
2018-03-08T23:09:49.304Z,14.43
2018-03-08T23:12:17.481Z,15.30
2018-03-08T23:14:46.373Z,16.70
2018-03-08T23:17:15.313Z,16.50
2018-03-08T23:19:43.471Z,13.00
2018-03-08T23:22:11.616Z,17.77
2018-03-08T23:24:40.517Z,12.30
2018-03-08T23:27:09.446Z,16.60
2018-03-08T23:29:37.569Z,13.43
2018-03-08T23:32:06.461Z,13.70
2018-03-08T23:34:35.368Z,10.10
2018-03-08T23:37:03.514Z,11.10
2018-03-08T23:39:31.668Z,12.00
2018-03-08T23:41:59.872Z,10.57
2018-03-08T23:44:28.785Z,14.03
2018-03-08T23:46:56.930Z,11.57
2018-03-08T23:49:25.081Z,11.20
2018-03-08T23:51:53.206Z,13.43
2018-03-08T23:54:21.367Z,17.13
2018-03-08T23:56:50.281Z,16.73
2018-03-08T23:59:18.430Z,12.80
